Vremea acum in Râșnov - Romania

Vrei sa afli care e starea vremii acum in Brasov - Romania? Dorim sa iti furnizam starea vremii pentru Brasov - Romania. Starea vremii Brasov - Romania pentru astazi.

Vremea acum in Râșnov

Temperatura: 19.6 °C

Este: Patchy light rain in area with thunder
Se simte ca: 19.6 °C
Innorat: 76 %
Precipitatii: 100 %
Presiune atmosferica: 1015 hPa
Umiditate: 49%
Vizibilitate: 10 km
Vantul bate din SSW cu 12.2 km/h

Evolutia vremii in Râșnov pe ore

Ora: 17:00
Patchy rain nearby
Temperatura: 17.4°C
Sansa de precipitatii: 100%
Ora Descriere Temp Se simte Precipitatii Umiditate Vant
00:00Ceata6.8°4.6°0%94%SSW 11.2 KM/H
01:00Ceata6.5°4.4°0%96%SSW 10.4 KM/H
02:00Ceata6.3°4.2°0%96%SSW 10.1 KM/H
03:00Ceata0%95%SSW 9.4 KM/H
04:00Ceata5.9°3.9°0%95%SSW 9.4 KM/H
05:00Ceata5.8°3.8°0%94%SSW 9 KM/H
06:00Senin5.9°4.1°0%92%SSW 8.6 KM/H
07:00Senin7.2°5.7°0%88%SSW 8.3 KM/H
08:00Senin13.4°13.3°0%79%SSW 6.8 KM/H
09:00Senin15.3°15.3°0%69%SSW 6.1 KM/H
10:00Senin16.7°16.7°0%60%SSW 6.8 KM/H
11:00Patchy rain nearby18.3°18.3°68%53%SSW 7.9 KM/H
12:00Patchy rain nearby19.4°19.4°100%48%SSW 9.7 KM/H
13:00Patchy light rain in area with thunder19.6°19.6°100%49%SSW 12.2 KM/H
14:00Patchy rain nearby19.1°19.2°100%52%SSW 12.6 KM/H
15:00Patchy rain nearby18.5°18.5°100%56%SSW 13.7 KM/H
16:00Patchy rain nearby17.6°17.6°100%62%SSW 12.6 KM/H
17:00Patchy rain nearby17.4°17.4°100%63%SSW 10.4 KM/H
18:00Ploi usoare15.9°15.9°100%72%SSW 10.1 KM/H
19:00Ploi usoare14.1°13.6°100%86%SSW 9.7 KM/H
20:00Ploi usoare11°10.2°100%93%SSW 8.3 KM/H
21:00Ceata9.8°8.9°100%95%SSW 7.6 KM/H
22:00Ceata9.3°8.1°54%95%SSW 8.6 KM/H
23:00Ceata9.9°9.2°100%95%S 6.5 KM/H




tutorials